Aeroporto :
LOGIN :

Iscrizione | Disclaimer

   EN    FR    IT 

 










Sommario :    VFR   VFR Marginale   IFR   IFR Intensivo   IFR Molto Intensivo
Visibilità : 
Base nubi : 
>= 8 km
>= 3000ft
5 / 8 km
1000 / 3000 ft
1500m / 5 km
500 / 1000 ft
800 / 1500m
200 / 500 ft
< 800m
< 200 ft
Simboli :   Temporali  Nebbia  Neve Forte  Precipitazioni Forti  Vento > 20 kt
SIGMETs :   Varie  Temporali  Ghiacco  Turbolenza  Onda orograficha  Ceneri Vulcaniche






- Altitudine del aeroporto : 427 ft
- Codice IATA : KBP


UKBB - Boryspil'

ULTIMO METAR :
  • 301000Z 32007MPS 290V350 CAVOK 11/01 Q1007 R36R/CLRD// TEMPO 33009G14MPS

METARs OBSOLETI :
  • 300930Z 31007MPS CAVOK 11/01 Q1007 R36R/CLRD// TEMPO 33009G14MPS
  • 300900Z 33007MPS CAVOK 11/01 Q1007 R36R/CLRD// TEMPO 33009G14MPS
  • 300830Z 33007MPS CAVOK 10/01 Q1006 R36R/CLRD// TEMPO 33009G14MPS
  • 300800Z 33006MPS CAVOK 10/01 Q1006 R36R/CLRD// TEMPO 33009G14MPS
  • 300730Z 33006MPS CAVOK 09/01 Q1006 R36R/CLRD// TEMPO 33009G14MPS

TAF COR TAF UKBB
Valido dal 30 a 06 ore il 31 a 06 ore UTC


300526Z 3006/3106 34006G12MPS 9999 BKN010 TX07/3012Z TNM06/3104Z
TEMPO 3006/3018 33009G14MPS 2100 -SHRASN BKN007 BKN012CB
TEMPO 3018/3106 2100 -SHSN BKN006 BKN012CB



MetMap, La meteo Aeronautica in un colpo d'occhio ! - Copyright ORBIFLY Dicembre 2007 - Disclaimer

ORBIFLY MET'MAP TEAM :

Programmazione e sviluppo : Alexandra Zaïnal
Concezione : Baudouin d'Aumeries
Aiuto per la programmazione : Marc-Olivier Méhu
Supporto tecnico e logistico : Manuel Goepfert
Aiuto per la traduzione : Arnaldo La Scala

Contatto : metmap@orbifly.com




FONTI E CREDITI :

   NOAA